sensor_id;sensor_type;location;lat;lon;timestamp;P1;durP1;ratioP1;P2;durP2;ratioP2
13849;SDS011;6995;52.618;13.488;2023-11-19T00:01:56;28.37;;;26.67;;
13849;SDS011;6995;52.618;13.488;2023-11-19T00:04:22;30.00;;;28.20;;
13849;SDS011;6995;52.618;13.488;2023-11-19T00:06:49;29.57;;;27.87;;
13849;SDS011;6995;52.618;13.488;2023-11-19T00:09:14;30.10;;;28.30;;
13849;SDS011;6995;52.618;13.488;2023-11-19T00:11:41;33.40;;;31.17;;
13849;SDS011;6995;52.618;13.488;2023-11-19T00:14:07;30.30;;;28.57;;
13849;SDS011;6995;52.618;13.488;2023-11-19T00:16:34;28.40;;;26.60;;
13849;SDS011;6995;52.618;13.488;2023-11-19T00:18:59;29.20;;;27.40;;
13849;SDS011;6995;52.618;13.488;2023-11-19T00:21:25;25.90;;;24.30;;
13849;SDS011;6995;52.618;13.488;2023-11-19T00:23:53;30.00;;;28.07;;
13849;SDS011;6995;52.618;13.488;2023-11-19T00:26:19;28.43;;;26.73;;
13849;SDS011;6995;52.618;13.488;2023-11-19T00:28:45;35.23;;;32.97;;
13849;SDS011;6995;52.618;13.488;2023-11-19T00:31:15;26.50;;;25.00;;
13849;SDS011;6995;52.618;13.488;2023-11-19T00:33:40;29.53;;;27.80;;
13849;SDS011;6995;52.618;13.488;2023-11-19T00:36:06;31.03;;;29.13;;
13849;SDS011;6995;52.618;13.488;2023-11-19T00:38:32;28.90;;;27.00;;
13849;SDS011;6995;52.618;13.488;2023-11-19T00:40:58;29.77;;;28.07;;
13849;SDS011;6995;52.618;13.488;2023-11-19T00:43:23;28.90;;;27.10;;
13849;SDS011;6995;52.618;13.488;2023-11-19T00:45:49;27.57;;;26.00;;
13849;SDS011;6995;52.618;13.488;2023-11-19T00:48:15;27.30;;;25.80;;
13849;SDS011;6995;52.618;13.488;2023-11-19T00:50:42;27.43;;;25.43;;
13849;SDS011;6995;52.618;13.488;2023-11-19T00:53:10;25.60;;;24.03;;
13849;SDS011;6995;52.618;13.488;2023-11-19T00:55:37;27.87;;;26.17;;
13849;SDS011;6995;52.618;13.488;2023-11-19T00:58:02;27.40;;;25.90;;
13849;SDS011;6995;52.618;13.488;2023-11-19T01:00:28;26.87;;;25.27;;
13849;SDS011;6995;52.618;13.488;2023-11-19T01:02:54;28.33;;;26.53;;
13849;SDS011;6995;52.618;13.488;2023-11-19T01:05:22;30.70;;;28.90;;
13849;SDS011;6995;52.618;13.488;2023-11-19T01:07:48;26.47;;;24.80;;
13849;SDS011;6995;52.618;13.488;2023-11-19T01:10:15;27.50;;;25.90;;
13849;SDS011;6995;52.618;13.488;2023-11-19T01:12:41;27.37;;;25.50;;
13849;SDS011;6995;52.618;13.488;2023-11-19T01:15:07;28.03;;;26.33;;
13849;SDS011;6995;52.618;13.488;2023-11-19T01:17:33;27.43;;;25.83;;
13849;SDS011;6995;52.618;13.488;2023-11-19T01:19:59;30.47;;;28.60;;
13849;SDS011;6995;52.618;13.488;2023-11-19T01:22:25;29.83;;;28.03;;
13849;SDS011;6995;52.618;13.488;2023-11-19T01:24:51;31.37;;;29.67;;
13849;SDS011;6995;52.618;13.488;2023-11-19T01:27:17;28.97;;;27.13;;
13849;SDS011;6995;52.618;13.488;2023-11-19T01:29:42;27.63;;;26.00;;
13849;SDS011;6995;52.618;13.488;2023-11-19T01:32:08;30.83;;;28.93;;
13849;SDS011;6995;52.618;13.488;2023-11-19T01:34:34;31.10;;;29.20;;
13849;SDS011;6995;52.618;13.488;2023-11-19T01:37:01;29.30;;;27.27;;
13849;SDS011;6995;52.618;13.488;2023-11-19T01:39:26;28.20;;;26.60;;
13849;SDS011;6995;52.618;13.488;2023-11-19T01:41:52;28.63;;;27.10;;
13849;SDS011;6995;52.618;13.488;2023-11-19T01:44:19;26.87;;;25.27;;
13849;SDS011;6995;52.618;13.488;2023-11-19T01:46:45;28.37;;;26.77;;
13849;SDS011;6995;52.618;13.488;2023-11-19T01:49:15;28.80;;;27.00;;
13849;SDS011;6995;52.618;13.488;2023-11-19T01:51:42;24.63;;;22.90;;
13849;SDS011;6995;52.618;13.488;2023-11-19T01:54:08;29.73;;;27.93;;
13849;SDS011;6995;52.618;13.488;2023-11-19T01:56:35;29.00;;;27.20;;
13849;SDS011;6995;52.618;13.488;2023-11-19T01:59:02;27.17;;;25.67;;
13849;SDS011;6995;52.618;13.488;2023-11-19T02:01:31;29.73;;;27.93;;
13849;SDS011;6995;52.618;13.488;2023-11-19T02:03:59;29.00;;;27.30;;
13849;SDS011;6995;52.618;13.488;2023-11-19T02:06:26;27.93;;;26.30;;
13849;SDS011;6995;52.618;13.488;2023-11-19T02:08:53;28.93;;;27.17;;
13849;SDS011;6995;52.618;13.488;2023-11-19T02:11:19;27.73;;;26.13;;
13849;SDS011;6995;52.618;13.488;2023-11-19T02:13:44;28.50;;;26.90;;
13849;SDS011;6995;52.618;13.488;2023-11-19T02:16:10;27.17;;;25.70;;
13849;SDS011;6995;52.618;13.488;2023-11-19T02:18:37;25.93;;;24.33;;
13849;SDS011;6995;52.618;13.488;2023-11-19T02:21:02;27.27;;;25.67;;
13849;SDS011;6995;52.618;13.488;2023-11-19T02:23:30;25.93;;;24.40;;
13849;SDS011;6995;52.618;13.488;2023-11-19T02:26:02;27.83;;;26.20;;
13849;SDS011;6995;52.618;13.488;2023-11-19T02:28:33;28.43;;;26.60;;
13849;SDS011;6995;52.618;13.488;2023-11-19T02:31:00;26.40;;;24.80;;
13849;SDS011;6995;52.618;13.488;2023-11-19T02:33:26;29.33;;;27.63;;
13849;SDS011;6995;52.618;13.488;2023-11-19T02:35:52;26.90;;;25.13;;
13849;SDS011;6995;52.618;13.488;2023-11-19T02:38:17;26.83;;;25.33;;
13849;SDS011;6995;52.618;13.488;2023-11-19T02:40:43;27.10;;;25.47;;
13849;SDS011;6995;52.618;13.488;2023-11-19T02:43:10;28.07;;;26.33;;
13849;SDS011;6995;52.618;13.488;2023-11-19T02:45:36;26.97;;;25.47;;
13849;SDS011;6995;52.618;13.488;2023-11-19T02:48:01;26.77;;;25.20;;
13849;SDS011;6995;52.618;13.488;2023-11-19T02:50:27;25.70;;;24.30;;
13849;SDS011;6995;52.618;13.488;2023-11-19T02:52:53;27.60;;;26.00;;
13849;SDS011;6995;52.618;13.488;2023-11-19T02:55:24;27.23;;;25.43;;
13849;SDS011;6995;52.618;13.488;2023-11-19T02:57:51;27.23;;;25.63;;
13849;SDS011;6995;52.618;13.488;2023-11-19T03:00:18;31.73;;;29.93;;
13849;SDS011;6995;52.618;13.488;2023-11-19T03:02:48;32.43;;;30.63;;
13849;SDS011;6995;52.618;13.488;2023-11-19T03:05:23;30.23;;;28.20;;
13849;SDS011;6995;52.618;13.488;2023-11-19T03:07:49;26.13;;;24.63;;
13849;SDS011;6995;52.618;13.488;2023-11-19T03:10:15;30.93;;;29.07;;
13849;SDS011;6995;52.618;13.488;2023-11-19T03:12:41;28.17;;;26.47;;
13849;SDS011;6995;52.618;13.488;2023-11-19T03:15:08;28.73;;;26.87;;
13849;SDS011;6995;52.618;13.488;2023-11-19T03:17:40;30.60;;;28.97;;
13849;SDS011;6995;52.618;13.488;2023-11-19T03:20:08;27.47;;;25.90;;
13849;SDS011;6995;52.618;13.488;2023-11-19T03:22:38;29.87;;;28.17;;
13849;SDS011;6995;52.618;13.488;2023-11-19T03:25:06;27.00;;;25.40;;
13849;SDS011;6995;52.618;13.488;2023-11-19T03:27:33;28.93;;;27.30;;
13849;SDS011;6995;52.618;13.488;2023-11-19T03:30:01;27.80;;;26.20;;
13849;SDS011;6995;52.618;13.488;2023-11-19T03:32:27;27.63;;;26.10;;
13849;SDS011;6995;52.618;13.488;2023-11-19T03:34:53;27.90;;;26.20;;
13849;SDS011;6995;52.618;13.488;2023-11-19T03:37:18;26.10;;;24.63;;
13849;SDS011;6995;52.618;13.488;2023-11-19T03:39:44;28.27;;;26.67;;
13849;SDS011;6995;52.618;13.488;2023-11-19T03:42:10;27.97;;;26.43;;
13849;SDS011;6995;52.618;13.488;2023-11-19T03:44:38;27.50;;;26.00;;
13849;SDS011;6995;52.618;13.488;2023-11-19T03:47:06;27.77;;;26.13;;
13849;SDS011;6995;52.618;13.488;2023-11-19T03:49:32;29.03;;;27.07;;
13849;SDS011;6995;52.618;13.488;2023-11-19T03:51:57;27.43;;;25.83;;
13849;SDS011;6995;52.618;13.488;2023-11-19T03:54:23;26.87;;;25.30;;
13849;SDS011;6995;52.618;13.488;2023-11-19T03:56:49;27.80;;;26.23;;
13849;SDS011;6995;52.618;13.488;2023-11-19T03:59:15;28.20;;;26.50;;
13849;SDS011;6995;52.618;13.488;2023-11-19T04:01:40;27.20;;;25.70;;
13849;SDS011;6995;52.618;13.488;2023-11-19T04:04:06;26.80;;;25.27;;
13849;SDS011;6995;52.618;13.488;2023-11-19T04:06:32;28.97;;;27.33;;
13849;SDS011;6995;52.618;13.488;2023-11-19T04:08:58;32.23;;;30.43;;
13849;SDS011;6995;52.618;13.488;2023-11-19T04:11:23;28.97;;;27.23;;
13849;SDS011;6995;52.618;13.488;2023-11-19T04:13:49;29.30;;;27.70;;
13849;SDS011;6995;52.618;13.488;2023-11-19T04:16:15;26.87;;;25.00;;
13849;SDS011;6995;52.618;13.488;2023-11-19T04:18:40;27.67;;;26.07;;
13849;SDS011;6995;52.618;13.488;2023-11-19T04:21:07;30.27;;;28.47;;
13849;SDS011;6995;52.618;13.488;2023-11-19T04:23:33;25.57;;;23.77;;
13849;SDS011;6995;52.618;13.488;2023-11-19T04:26:01;29.80;;;28.03;;
13849;SDS011;6995;52.618;13.488;2023-11-19T04:28:27;27.20;;;25.60;;
13849;SDS011;6995;52.618;13.488;2023-11-19T04:30:54;26.87;;;25.20;;
13849;SDS011;6995;52.618;13.488;2023-11-19T04:33:20;27.27;;;25.77;;
13849;SDS011;6995;52.618;13.488;2023-11-19T04:35:45;29.20;;;27.47;;
13849;SDS011;6995;52.618;13.488;2023-11-19T04:38:11;28.07;;;26.27;;
13849;SDS011;6995;52.618;13.488;2023-11-19T04:40:40;26.27;;;24.50;;
13849;SDS011;6995;52.618;13.488;2023-11-19T04:43:08;27.40;;;25.70;;
13849;SDS011;6995;52.618;13.488;2023-11-19T04:45:33;28.63;;;26.97;;
13849;SDS011;6995;52.618;13.488;2023-11-19T04:47:59;30.93;;;29.00;;
13849;SDS011;6995;52.618;13.488;2023-11-19T04:50:25;28.63;;;26.73;;
13849;SDS011;6995;52.618;13.488;2023-11-19T04:52:52;28.67;;;26.97;;
13849;SDS011;6995;52.618;13.488;2023-11-19T04:55:18;34.07;;;31.97;;
13849;SDS011;6995;52.618;13.488;2023-11-19T04:57:44;30.23;;;28.47;;
13849;SDS011;6995;52.618;13.488;2023-11-19T05:00:12;30.83;;;28.83;;
13849;SDS011;6995;52.618;13.488;2023-11-19T05:02:38;31.10;;;29.30;;
13849;SDS011;6995;52.618;13.488;2023-11-19T05:05:04;27.67;;;26.07;;
13849;SDS011;6995;52.618;13.488;2023-11-19T05:07:30;35.77;;;33.27;;
13849;SDS011;6995;52.618;13.488;2023-11-19T05:09:56;28.20;;;26.37;;
13849;SDS011;6995;52.618;13.488;2023-11-19T05:12:22;30.27;;;28.27;;
13849;SDS011;6995;52.618;13.488;2023-11-19T05:14:48;29.83;;;27.73;;
13849;SDS011;6995;52.618;13.488;2023-11-19T05:17:18;28.60;;;26.70;;
13849;SDS011;6995;52.618;13.488;2023-11-19T05:19:44;28.33;;;26.47;;
13849;SDS011;6995;52.618;13.488;2023-11-19T05:22:10;33.77;;;31.17;;
13849;SDS011;6995;52.618;13.488;2023-11-19T05:24:36;27.97;;;26.30;;
13849;SDS011;6995;52.618;13.488;2023-11-19T05:27:01;31.17;;;29.13;;
13849;SDS011;6995;52.618;13.488;2023-11-19T05:29:27;28.97;;;26.77;;
13849;SDS011;6995;52.618;13.488;2023-11-19T05:31:53;28.97;;;26.87;;
13849;SDS011;6995;52.618;13.488;2023-11-19T05:34:20;29.87;;;27.97;;
13849;SDS011;6995;52.618;13.488;2023-11-19T05:36:46;31.17;;;29.23;;
13849;SDS011;6995;52.618;13.488;2023-11-19T05:39:12;36.47;;;34.37;;
13849;SDS011;6995;52.618;13.488;2023-11-19T05:41:37;28.63;;;26.93;;
13849;SDS011;6995;52.618;13.488;2023-11-19T05:44:03;28.70;;;26.90;;
13849;SDS011;6995;52.618;13.488;2023-11-19T05:46:29;29.40;;;27.60;;
13849;SDS011;6995;52.618;13.488;2023-11-19T05:48:54;29.53;;;27.73;;
13849;SDS011;6995;52.618;13.488;2023-11-19T05:51:21;29.57;;;27.77;;
13849;SDS011;6995;52.618;13.488;2023-11-19T05:53:48;28.30;;;26.53;;
13849;SDS011;6995;52.618;13.488;2023-11-19T05:56:16;27.67;;;25.97;;
13849;SDS011;6995;52.618;13.488;2023-11-19T05:58:46;26.53;;;24.90;;
13849;SDS011;6995;52.618;13.488;2023-11-19T06:01:13;27.87;;;26.17;;
13849;SDS011;6995;52.618;13.488;2023-11-19T06:03:38;26.10;;;24.60;;
13849;SDS011;6995;52.618;13.488;2023-11-19T06:06:04;29.43;;;27.73;;
13849;SDS011;6995;52.618;13.488;2023-11-19T06:08:31;27.73;;;26.03;;
13849;SDS011;6995;52.618;13.488;2023-11-19T06:10:57;30.00;;;28.30;;
13849;SDS011;6995;52.618;13.488;2023-11-19T06:13:23;29.13;;;27.33;;
13849;SDS011;6995;52.618;13.488;2023-11-19T06:15:49;29.00;;;27.43;;
13849;SDS011;6995;52.618;13.488;2023-11-19T06:18:15;31.53;;;29.53;;
13849;SDS011;6995;52.618;13.488;2023-11-19T06:20:41;30.33;;;28.60;;
13849;SDS011;6995;52.618;13.488;2023-11-19T06:23:08;27.97;;;26.27;;
13849;SDS011;6995;52.618;13.488;2023-11-19T06:25:33;27.50;;;25.90;;
13849;SDS011;6995;52.618;13.488;2023-11-19T06:28:00;27.83;;;26.17;;
13849;SDS011;6995;52.618;13.488;2023-11-19T06:30:26;27.83;;;26.37;;
13849;SDS011;6995;52.618;13.488;2023-11-19T06:32:53;28.77;;;26.87;;
13849;SDS011;6995;52.618;13.488;2023-11-19T06:35:19;31.63;;;29.93;;
13849;SDS011;6995;52.618;13.488;2023-11-19T06:37:44;27.17;;;25.63;;
13849;SDS011;6995;52.618;13.488;2023-11-19T06:40:10;32.63;;;30.63;;
13849;SDS011;6995;52.618;13.488;2023-11-19T06:42:37;29.20;;;27.60;;
13849;SDS011;6995;52.618;13.488;2023-11-19T06:45:03;31.40;;;29.70;;
13849;SDS011;6995;52.618;13.488;2023-11-19T06:47:31;38.90;;;36.93;;
13849;SDS011;6995;52.618;13.488;2023-11-19T06:49:57;29.30;;;27.67;;
13849;SDS011;6995;52.618;13.488;2023-11-19T06:52:23;30.77;;;29.03;;
13849;SDS011;6995;52.618;13.488;2023-11-19T06:54:49;50.40;;;47.93;;
13849;SDS011;6995;52.618;13.488;2023-11-19T06:57:16;30.83;;;29.17;;
13849;SDS011;6995;52.618;13.488;2023-11-19T06:59:42;27.53;;;25.93;;
13849;SDS011;6995;52.618;13.488;2023-11-19T07:02:09;30.53;;;28.90;;
13849;SDS011;6995;52.618;13.488;2023-11-19T07:04:34;31.80;;;30.00;;
13849;SDS011;6995;52.618;13.488;2023-11-19T07:07:00;30.63;;;28.97;;
13849;SDS011;6995;52.618;13.488;2023-11-19T07:09:26;33.20;;;31.47;;
13849;SDS011;6995;52.618;13.488;2023-11-19T07:11:52;27.60;;;26.10;;
13849;SDS011;6995;52.618;13.488;2023-11-19T07:14:18;30.37;;;28.63;;
13849;SDS011;6995;52.618;13.488;2023-11-19T07:16:45;35.60;;;33.67;;
13849;SDS011;6995;52.618;13.488;2023-11-19T07:19:15;29.03;;;27.43;;
13849;SDS011;6995;52.618;13.488;2023-11-19T07:21:41;33.40;;;31.70;;
13849;SDS011;6995;52.618;13.488;2023-11-19T07:24:10;32.83;;;31.03;;
13849;SDS011;6995;52.618;13.488;2023-11-19T07:26:40;28.73;;;27.03;;
13849;SDS011;6995;52.618;13.488;2023-11-19T07:29:07;28.57;;;27.07;;
13849;SDS011;6995;52.618;13.488;2023-11-19T07:31:33;34.53;;;32.73;;
13849;SDS011;6995;52.618;13.488;2023-11-19T07:33:58;30.13;;;28.43;;
13849;SDS011;6995;52.618;13.488;2023-11-19T07:36:24;28.77;;;27.17;;
13849;SDS011;6995;52.618;13.488;2023-11-19T07:38:51;33.07;;;31.40;;
13849;SDS011;6995;52.618;13.488;2023-11-19T07:41:16;29.13;;;27.43;;
13849;SDS011;6995;52.618;13.488;2023-11-19T07:43:45;27.80;;;26.30;;
13849;SDS011;6995;52.618;13.488;2023-11-19T07:46:15;30.87;;;29.27;;
13849;SDS011;6995;52.618;13.488;2023-11-19T07:48:41;30.17;;;28.67;;
13849;SDS011;6995;52.618;13.488;2023-11-19T07:51:07;28.50;;;26.90;;
13849;SDS011;6995;52.618;13.488;2023-11-19T07:53:33;32.57;;;30.87;;
13849;SDS011;6995;52.618;13.488;2023-11-19T07:55:59;28.20;;;26.73;;
13849;SDS011;6995;52.618;13.488;2023-11-19T07:58:25;29.93;;;28.43;;
13849;SDS011;6995;52.618;13.488;2023-11-19T08:00:51;31.37;;;29.77;;
13849;SDS011;6995;52.618;13.488;2023-11-19T08:03:17;38.77;;;36.87;;
13849;SDS011;6995;52.618;13.488;2023-11-19T08:05:44;28.63;;;27.07;;
13849;SDS011;6995;52.618;13.488;2023-11-19T08:08:11;38.87;;;36.87;;
13849;SDS011;6995;52.618;13.488;2023-11-19T08:10:37;40.37;;;38.37;;
13849;SDS011;6995;52.618;13.488;2023-11-19T08:13:07;35.78;;;33.95;;
13849;SDS011;6995;52.618;13.488;2023-11-19T08:15:33;35.57;;;33.67;;
13849;SDS011;6995;52.618;13.488;2023-11-19T08:17:58;41.43;;;39.00;;
13849;SDS011;6995;52.618;13.488;2023-11-19T08:20:25;40.97;;;38.93;;
13849;SDS011;6995;52.618;13.488;2023-11-19T08:22:51;42.80;;;40.63;;
13849;SDS011;6995;52.618;13.488;2023-11-19T08:25:17;46.53;;;44.33;;
13849;SDS011;6995;52.618;13.488;2023-11-19T08:27:42;47.27;;;44.87;;
13849;SDS011;6995;52.618;13.488;2023-11-19T08:30:08;31.60;;;30.00;;
13849;SDS011;6995;52.618;13.488;2023-11-19T08:32:34;34.83;;;33.03;;
13849;SDS011;6995;52.618;13.488;2023-11-19T08:35:01;37.63;;;35.57;;
13849;SDS011;6995;52.618;13.488;2023-11-19T08:37:26;43.17;;;40.87;;
13849;SDS011;6995;52.618;13.488;2023-11-19T08:39:52;34.27;;;32.30;;
13849;SDS011;6995;52.618;13.488;2023-11-19T08:42:18;34.30;;;32.50;;
13849;SDS011;6995;52.618;13.488;2023-11-19T08:44:44;33.23;;;31.47;;
13849;SDS011;6995;52.618;13.488;2023-11-19T08:47:15;37.03;;;35.20;;
13849;SDS011;6995;52.618;13.488;2023-11-19T08:49:42;30.03;;;28.53;;
13849;SDS011;6995;52.618;13.488;2023-11-19T08:52:09;32.70;;;30.97;;
13849;SDS011;6995;52.618;13.488;2023-11-19T08:54:35;30.37;;;28.70;;
13849;SDS011;6995;52.618;13.488;2023-11-19T08:57:07;30.87;;;29.17;;
13849;SDS011;6995;52.618;13.488;2023-11-19T08:59:34;31.07;;;29.37;;
13849;SDS011;6995;52.618;13.488;2023-11-19T09:01:59;34.67;;;32.73;;
13849;SDS011;6995;52.618;13.488;2023-11-19T09:04:27;37.20;;;35.20;;
13849;SDS011;6995;52.618;13.488;2023-11-19T09:06:53;41.83;;;39.73;;
13849;SDS011;6995;52.618;13.488;2023-11-19T09:09:19;70.23;;;66.73;;
13849;SDS011;6995;52.618;13.488;2023-11-19T09:11:45;52.20;;;49.50;;
13849;SDS011;6995;52.618;13.488;2023-11-19T09:14:11;51.10;;;48.30;;
13849;SDS011;6995;52.618;13.488;2023-11-19T09:16:38;50.07;;;47.23;;
13849;SDS011;6995;52.618;13.488;2023-11-19T09:19:03;55.27;;;52.47;;
13849;SDS011;6995;52.618;13.488;2023-11-19T09:21:29;40.17;;;37.77;;
13849;SDS011;6995;52.618;13.488;2023-11-19T09:23:55;49.60;;;46.83;;
13849;SDS011;6995;52.618;13.488;2023-11-19T09:26:20;57.73;;;54.63;;
13849;SDS011;6995;52.618;13.488;2023-11-19T09:28:46;46.83;;;44.13;;
13849;SDS011;6995;52.618;13.488;2023-11-19T09:31:18;56.03;;;52.97;;
13849;SDS011;6995;52.618;13.488;2023-11-19T09:33:43;63.00;;;59.97;;
13849;SDS011;6995;52.618;13.488;2023-11-19T09:36:13;77.20;;;73.67;;
13849;SDS011;6995;52.618;13.488;2023-11-19T09:38:40;93.30;;;88.80;;
13849;SDS011;6995;52.618;13.488;2023-11-19T09:41:05;87.90;;;83.67;;
13849;SDS011;6995;52.618;13.488;2023-11-19T09:43:38;66.63;;;63.03;;
13849;SDS011;6995;52.618;13.488;2023-11-19T09:46:05;70.80;;;67.37;;
13849;SDS011;6995;52.618;13.488;2023-11-19T09:48:35;46.77;;;44.37;;
13849;SDS011;6995;52.618;13.488;2023-11-19T09:51:05;47.57;;;45.03;;
13849;SDS011;6995;52.618;13.488;2023-11-19T09:53:31;61.53;;;58.23;;
13849;SDS011;6995;52.618;13.488;2023-11-19T09:55:59;55.70;;;53.03;;
13849;SDS011;6995;52.618;13.488;2023-11-19T09:58:27;53.47;;;50.53;;
13849;SDS011;6995;52.618;13.488;2023-11-19T10:00:54;34.23;;;32.13;;
13849;SDS011;6995;52.618;13.488;2023-11-19T10:03:19;39.70;;;37.70;;
13849;SDS011;6995;52.618;13.488;2023-11-19T10:05:47;36.70;;;34.67;;
13849;SDS011;6995;52.618;13.488;2023-11-19T10:08:16;29.37;;;27.30;;
13849;SDS011;6995;52.618;13.488;2023-11-19T10:10:42;34.10;;;32.30;;
13849;SDS011;6995;52.618;13.488;2023-11-19T10:13:08;28.23;;;26.67;;
13849;SDS011;6995;52.618;13.488;2023-11-19T10:15:37;32.27;;;30.47;;
13849;SDS011;6995;52.618;13.488;2023-11-19T10:18:04;29.83;;;28.03;;
13849;SDS011;6995;52.618;13.488;2023-11-19T10:20:37;30.17;;;28.40;;
13849;SDS011;6995;52.618;13.488;2023-11-19T10:23:05;33.97;;;32.10;;
13849;SDS011;6995;52.618;13.488;2023-11-19T10:25:30;41.93;;;39.77;;
13849;SDS011;6995;52.618;13.488;2023-11-19T10:27:58;31.97;;;30.13;;
13849;SDS011;6995;52.618;13.488;2023-11-19T10:30:27;32.93;;;30.83;;
13849;SDS011;6995;52.618;13.488;2023-11-19T10:33:06;29.10;;;27.47;;
13849;SDS011;6995;52.618;13.488;2023-11-19T10:35:34;27.73;;;26.13;;
13849;SDS011;6995;52.618;13.488;2023-11-19T10:38:14;26.80;;;25.30;;
13849;SDS011;6995;52.618;13.488;2023-11-19T10:40:40;25.73;;;24.27;;
13849;SDS011;6995;52.618;13.488;2023-11-19T10:43:06;26.07;;;24.67;;
13849;SDS011;6995;52.618;13.488;2023-11-19T10:45:33;26.90;;;25.00;;
13849;SDS011;6995;52.618;13.488;2023-11-19T10:47:59;24.53;;;23.10;;
13849;SDS011;6995;52.618;13.488;2023-11-19T10:50:26;30.90;;;29.20;;
13849;SDS011;6995;52.618;13.488;2023-11-19T10:52:55;25.33;;;23.63;;
13849;SDS011;6995;52.618;13.488;2023-11-19T10:55:26;31.50;;;29.90;;
13849;SDS011;6995;52.618;13.488;2023-11-19T10:57:53;30.03;;;28.53;;
13849;SDS011;6995;52.618;13.488;2023-11-19T11:00:29;27.97;;;26.33;;
13849;SDS011;6995;52.618;13.488;2023-11-19T11:03:00;32.77;;;30.70;;
13849;SDS011;6995;52.618;13.488;2023-11-19T11:05:27;27.70;;;25.87;;
13849;SDS011;6995;52.618;13.488;2023-11-19T11:07:58;29.70;;;27.90;;
13849;SDS011;6995;52.618;13.488;2023-11-19T11:10:26;33.40;;;31.27;;
13849;SDS011;6995;52.618;13.488;2023-11-19T11:12:53;40.40;;;38.20;;
13849;SDS011;6995;52.618;13.488;2023-11-19T11:15:32;32.87;;;31.07;;
13849;SDS011;6995;52.618;13.488;2023-11-19T11:18:01;43.07;;;40.80;;
13849;SDS011;6995;52.618;13.488;2023-11-19T11:20:28;32.83;;;31.03;;
13849;SDS011;6995;52.618;13.488;2023-11-19T11:23:06;36.37;;;34.13;;
13849;SDS011;6995;52.618;13.488;2023-11-19T11:25:43;37.30;;;34.40;;
13849;SDS011;6995;52.618;13.488;2023-11-19T11:28:21;34.97;;;32.87;;
13849;SDS011;6995;52.618;13.488;2023-11-19T11:34:17;25.27;;;23.67;;
13849;SDS011;6995;52.618;13.488;2023-11-19T11:39:41;29.47;;;27.50;;
13849;SDS011;6995;52.618;13.488;2023-11-19T11:45:06;26.50;;;24.67;;
13849;SDS011;6995;52.618;13.488;2023-11-19T11:50:12;28.63;;;25.73;;
13849;SDS011;6995;52.618;13.488;2023-11-19T11:57:58;29.03;;;27.07;;
13849;SDS011;6995;52.618;13.488;2023-11-19T12:00:27;30.97;;;28.47;;
13849;SDS011;6995;52.618;13.488;2023-11-19T12:02:56;27.37;;;25.17;;
13849;SDS011;6995;52.618;13.488;2023-11-19T12:05:22;30.80;;;28.73;;
13849;SDS011;6995;52.618;13.488;2023-11-19T12:07:54;29.47;;;27.27;;
13849;SDS011;6995;52.618;13.488;2023-11-19T12:10:32;29.33;;;27.57;;
13849;SDS011;6995;52.618;13.488;2023-11-19T12:13:03;27.60;;;25.20;;
13849;SDS011;6995;52.618;13.488;2023-11-19T12:15:32;32.30;;;30.20;;
13849;SDS011;6995;52.618;13.488;2023-11-19T12:17:58;29.53;;;26.77;;
13849;SDS011;6995;52.618;13.488;2023-11-19T12:20:24;31.33;;;28.83;;
13849;SDS011;6995;52.618;13.488;2023-11-19T12:22:51;27.90;;;25.80;;
13849;SDS011;6995;52.618;13.488;2023-11-19T12:25:18;30.53;;;28.53;;
13849;SDS011;6995;52.618;13.488;2023-11-19T12:27:51;29.63;;;27.73;;
13849;SDS011;6995;52.618;13.488;2023-11-19T12:30:21;27.25;;;24.77;;
13849;SDS011;6995;52.618;13.488;2023-11-19T12:32:50;32.63;;;30.10;;
13849;SDS011;6995;52.618;13.488;2023-11-19T12:35:21;31.17;;;28.30;;
13849;SDS011;6995;52.618;13.488;2023-11-19T12:37:48;30.60;;;28.47;;
13849;SDS011;6995;52.618;13.488;2023-11-19T12:42:42;32.20;;;29.53;;
13849;SDS011;6995;52.618;13.488;2023-11-19T12:45:09;33.77;;;31.33;;
13849;SDS011;6995;52.618;13.488;2023-11-19T12:47:36;29.97;;;27.43;;
13849;SDS011;6995;52.618;13.488;2023-11-19T12:50:04;32.50;;;29.90;;
13849;SDS011;6995;52.618;13.488;2023-11-19T12:52:31;32.77;;;29.90;;
13849;SDS011;6995;52.618;13.488;2023-11-19T12:54:57;30.67;;;27.63;;
13849;SDS011;6995;52.618;13.488;2023-11-19T12:57:36;35.20;;;32.23;;
13849;SDS011;6995;52.618;13.488;2023-11-19T13:00:03;34.20;;;31.17;;
13849;SDS011;6995;52.618;13.488;2023-11-19T13:02:44;30.60;;;28.57;;
13849;SDS011;6995;52.618;13.488;2023-11-19T13:10:28;28.40;;;26.27;;
13849;SDS011;6995;52.618;13.488;2023-11-19T13:13:04;29.90;;;27.37;;
13849;SDS011;6995;52.618;13.488;2023-11-19T13:15:32;27.73;;;24.97;;
13849;SDS011;6995;52.618;13.488;2023-11-19T13:17:58;28.40;;;25.48;;
13849;SDS011;6995;52.618;13.488;2023-11-19T13:20:24;27.93;;;25.93;;
13849;SDS011;6995;52.618;13.488;2023-11-19T13:22:54;26.17;;;23.97;;
13849;SDS011;6995;52.618;13.488;2023-11-19T13:25:26;28.25;;;25.60;;
13849;SDS011;6995;52.618;13.488;2023-11-19T13:27:53;32.77;;;29.80;;
13849;SDS011;6995;52.618;13.488;2023-11-19T13:30:19;25.98;;;23.73;;
13849;SDS011;6995;52.618;13.488;2023-11-19T13:32:48;28.73;;;26.10;;
13849;SDS011;6995;52.618;13.488;2023-11-19T13:35:14;29.50;;;27.05;;
13849;SDS011;6995;52.618;13.488;2023-11-19T13:37:40;34.50;;;31.33;;
13849;SDS011;6995;52.618;13.488;2023-11-19T13:40:09;27.30;;;25.05;;
13849;SDS011;6995;52.618;13.488;2023-11-19T13:42:38;28.58;;;25.75;;
13849;SDS011;6995;52.618;13.488;2023-11-19T13:45:10;27.10;;;24.97;;
13849;SDS011;6995;52.618;13.488;2023-11-19T13:47:41;27.50;;;25.23;;
13849;SDS011;6995;52.618;13.488;2023-11-19T13:50:11;25.80;;;23.47;;
13849;SDS011;6995;52.618;13.488;2023-11-19T13:52:38;26.67;;;24.30;;
13849;SDS011;6995;52.618;13.488;2023-11-19T13:55:10;32.83;;;29.77;;
13849;SDS011;6995;52.618;13.488;2023-11-19T13:57:37;25.40;;;23.07;;
13849;SDS011;6995;52.618;13.488;2023-11-19T14:00:03;29.50;;;27.17;;
13849;SDS011;6995;52.618;13.488;2023-11-19T14:02:31;27.10;;;24.20;;
13849;SDS011;6995;52.618;13.488;2023-11-19T14:05:00;26.63;;;24.53;;
13849;SDS011;6995;52.618;13.488;2023-11-19T14:07:26;28.17;;;25.63;;
13849;SDS011;6995;52.618;13.488;2023-11-19T14:09:52;29.27;;;24.63;;
13849;SDS011;6995;52.618;13.488;2023-11-19T14:12:19;30.03;;;27.20;;
13849;SDS011;6995;52.618;13.488;2023-11-19T14:14:45;26.90;;;24.07;;
13849;SDS011;6995;52.618;13.488;2023-11-19T14:17:11;29.63;;;27.00;;
13849;SDS011;6995;52.618;13.488;2023-11-19T14:19:37;34.17;;;30.73;;
13849;SDS011;6995;52.618;13.488;2023-11-19T14:22:04;32.00;;;28.67;;
13849;SDS011;6995;52.618;13.488;2023-11-19T14:24:30;29.77;;;27.00;;
13849;SDS011;6995;52.618;13.488;2023-11-19T14:26:56;28.77;;;25.47;;
13849;SDS011;6995;52.618;13.488;2023-11-19T14:29:26;31.63;;;28.13;;
13849;SDS011;6995;52.618;13.488;2023-11-19T14:31:56;27.97;;;25.37;;
13849;SDS011;6995;52.618;13.488;2023-11-19T14:34:23;28.93;;;26.07;;
13849;SDS011;6995;52.618;13.488;2023-11-19T14:36:49;29.47;;;26.73;;
13849;SDS011;6995;52.618;13.488;2023-11-19T14:39:15;32.53;;;29.50;;
13849;SDS011;6995;52.618;13.488;2023-11-19T14:41:42;32.00;;;28.40;;
13849;SDS011;6995;52.618;13.488;2023-11-19T14:44:09;32.53;;;29.33;;
13849;SDS011;6995;52.618;13.488;2023-11-19T14:46:35;33.30;;;30.53;;